Black Mountain, NC

7:45 AM EDT on July 24, 2016 (GMT -0400)
Black Mountain | | Change Station
Active Advisory: Air Quality Alert

Elev 2400 ft 35.62 °N, 82.32 °W | Updated 11 seconds ago

Scattered Clouds
Scattered Clouds
66.7 °F
Feels Like 66.7 °F
N
0.0
Wind Variable Wind from North
Gusts 0.0 mph

Today
High -- | Low -- °F
--% Chance of Precip.
Yesterday
High -- | Low -- °F
Precip. -- in
Pressure 30.13 in
Visibility 8.0 miles
Clouds Scattered Clouds 400 ft
Dew Point 67 °F
Humidity 99%
Rainfall 0.00 in
Snow Depth Not available.
6:31 AM 8:39 PM
Waning Gibbous, 77% visible
SPECI KAVL 241126Z 35003KT 8SM SCT004 21/18 A3013 RMK AO2 T02060183
Pressure 30.13 in
Visibility 8.0 miles
Clouds Scattered Clouds 400 ft
Dew Point 67 °F
Humidity 99%
Rainfall 0.00 in
Snow Depth Not available.
6:31 AM 8:39 PM
Waning Gibbous, 77% visible
SPECI KAVL 241126Z 35003KT 8SM SCT004 21/18 A3013 RMK AO2 T02060183

10-Day Weather Forecast

Almanac

Astronomy

Jul. 24, 2016 Rise Set
Actual Time
Civil Twilight
Nautical Twilight
Astronomical Twilight
Moon
Length of Visible Light
Length of Day
Tomorrow will be .
, % of the Moon is Illuminated

Today's Extremes

State Highs State Lows

Community

WunderPhotos

Upload Photos

1,927,049 photos uploaded!

WunderBlog® & News

Nearby

Air Quality

  Air Quality AQ Index Pollutant
Not available.

Snow Depth

Station Depth Elevation

Earthquake Activity

City Distance Mag. Time & Date
Minimum magnitude displayed is 2.5.

Coastal Water Temperatures

Place Temperature

Stations

Nearby Weather Stations

Station Location Temp. Windchill Dew Point Humidity Wind Precip. Elev Updated Type
                   

Watches & Warnings

Air Quality Alert
Issued: 7:31 AM EDT Jul. 24, 2016 – National Weather Service

... Air quality alert in effect for the mountain ridgetops until
midnight EDT tonight...

The North Carolina department of environmental quality in Raleigh NC
has issued a code Orange air quality action day for ground level
ozone... in effect until midnight EDT tonight.

An air quality action day means that ground level ozone
concentrations within the region may approach or exceed unhealthy
standards. For additional information... please visit the North
Carolina division of air quality web site at
www.Ncair.Org/airaware/forecast/.



731 am EDT sun Jul 24 2016

... Air quality alert in effect for the mountain ridgetops until
midnight EDT tonight...

The North Carolina department of environmental quality in Raleigh NC
has issued a code Orange air quality action day for ground level
ozone... in effect until midnight EDT tonight.

An air quality action day means that ground level ozone
concentrations within the region may approach or exceed unhealthy
standards. For additional information... please visit the North
Carolina division of air quality web site at
www.Ncair.Org/airaware/forecast/.